THYB8K LTAI-LTAC
Flight info
| Callsign | THYB8K |
|---|---|
| Flight time | 0h 44m |
| Altitude | 31000 |
| Route | HISAR1F/36R HISAR UW77 HALIL |
| Aircraft | A320/M-SDE3FGHIRWY/LB1 |
Departure
| Time | 2026-05-04 16:46 |
|---|---|
| Airport | Antalya International Airport (LTAI) |
Arrival
| Time | 2026-05-04 17:30 |
|---|---|
| Airport | Esenboğa International Airport (LTAC) |
| Time | Latitude | Longitude | Altitude | Speed | Heading |
|---|---|---|---|---|---|
| 2026-05-04 16:01 | 36.89706 | 30.80159 | 203 ft | 0 kts | 352° |
| 2026-05-04 16:31 | 36.89679 | 30.80164 | 203 ft | 2 kts | 352° |
| 2026-05-04 16:31 | 36.89628 | 30.80173 | 202 ft | 3 kts | 7° |
| 2026-05-04 16:32 | 36.89601 | 30.80148 | 207 ft | 0 kts | 77° |
| 2026-05-04 16:37 | 36.89602 | 30.80151 | 207 ft | 1 kts | 79° |
| 2026-05-04 16:37 | 36.89599 | 30.80225 | 196 ft | 15 kts | 96° |
| 2026-05-04 16:37 | 36.89570 | 30.80528 | 192 ft | 20 kts | 97° |
| 2026-05-04 16:38 | 36.89465 | 30.80677 | 199 ft | 20 kts | 191° |
| 2026-05-04 16:39 | 36.89263 | 30.80613 | 192 ft | 6 kts | 165° |
| 2026-05-04 16:39 | 36.89125 | 30.80620 | 203 ft | 16 kts | 199° |
| 2026-05-04 16:40 | 36.89040 | 30.80619 | 192 ft | 12 kts | 184° |
| 2026-05-04 16:40 | 36.88923 | 30.80581 | 193 ft | 1 kts | 207° |
| 2026-05-04 16:41 | 36.88887 | 30.80584 | 203 ft | 6 kts | 172° |
| 2026-05-04 16:41 | 36.88588 | 30.80548 | 205 ft | 21 kts | 188° |
| 2026-05-04 16:42 | 36.88234 | 30.80502 | 200 ft | 10 kts | 185° |
| 2026-05-04 16:43 | 36.88140 | 30.80576 | 198 ft | 1 kts | 96° |
| 2026-05-04 16:44 | 36.88132 | 30.80702 | 190 ft | 10 kts | 74° |
| 2026-05-04 16:45 | 36.88218 | 30.80741 | 193 ft | 0 kts | 8° |
| 2026-05-04 16:46 | 36.89727 | 30.80974 | 270 ft | 137 kts | 7° |
| 2026-05-04 16:46 | 36.91701 | 30.81751 | 1271 ft | 153 kts | 4° |
| 2026-05-04 16:47 | 36.93852 | 30.82545 | 2381 ft | 175 kts | 20° |
| 2026-05-04 16:47 | 36.96353 | 30.83715 | 3322 ft | 208 kts | 20° |
| 2026-05-04 16:48 | 37.00650 | 30.85803 | 5425 ft | 238 kts | 21° |
| 2026-05-04 16:48 | 37.02254 | 30.86576 | 6039 ft | 256 kts | 21° |
| 2026-05-04 16:49 | 37.05764 | 30.88267 | 7489 ft | 279 kts | 19° |
| 2026-05-04 16:49 | 37.09635 | 30.88479 | 9254 ft | 287 kts | 347° |
| 2026-05-04 16:50 | 37.12938 | 30.87627 | 10530 ft | 299 kts | 347° |
| 2026-05-04 16:50 | 37.17254 | 30.86539 | 11392 ft | 333 kts | 348° |
| 2026-05-04 16:51 | 37.21973 | 30.85361 | 12534 ft | 352 kts | 348° |
| 2026-05-04 16:51 | 37.24384 | 30.84759 | 13319 ft | 355 kts | 347° |
| 2026-05-04 16:51 | 37.29312 | 30.84216 | 14746 ft | 362 kts | 8° |
| 2026-05-04 16:52 | 37.33863 | 30.86945 | 16054 ft | 372 kts | 41° |
| 2026-05-04 16:52 | 37.35495 | 30.89425 | 16694 ft | 377 kts | 58° |
| 2026-05-04 16:53 | 37.37636 | 30.95499 | 18031 ft | 383 kts | 61° |
| 2026-05-04 16:53 | 37.43375 | 31.02320 | 20009 ft | 387 kts | 27° |
| 2026-05-04 16:54 | 37.45758 | 31.03924 | 20659 ft | 390 kts | 30° |
| 2026-05-04 16:55 | 37.55110 | 31.11157 | 22952 ft | 400 kts | 33° |
| 2026-05-04 16:55 | 37.59911 | 31.14838 | 23844 ft | 406 kts | 32° |
| 2026-05-04 16:56 | 37.64773 | 31.18494 | 23956 ft | 407 kts | 32° |
| 2026-05-04 16:56 | 37.72040 | 31.23968 | 23967 ft | 407 kts | 33° |
| 2026-05-04 16:57 | 37.74465 | 31.25804 | 23962 ft | 406 kts | 33° |
| 2026-05-04 16:57 | 37.79311 | 31.29479 | 23962 ft | 406 kts | 33° |
| 2026-05-04 16:58 | 37.86556 | 31.34994 | 23961 ft | 405 kts | 33° |
| 2026-05-04 16:58 | 37.88970 | 31.36833 | 23958 ft | 405 kts | 34° |
| 2026-05-04 16:59 | 37.93792 | 31.40504 | 23964 ft | 404 kts | 34° |
| 2026-05-04 17:00 | 38.03420 | 31.47868 | 23997 ft | 403 kts | 34° |
| 2026-05-04 17:00 | 38.10713 | 31.53481 | 25121 ft | 415 kts | 34° |
| 2026-05-04 17:01 | 38.15839 | 31.57056 | 25823 ft | 426 kts | 30° |
| 2026-05-04 17:01 | 38.21241 | 31.60333 | 26510 ft | 434 kts | 28° |
| 2026-05-04 17:02 | 38.26712 | 31.63631 | 27169 ft | 441 kts | 30° |
| 2026-05-04 17:02 | 38.32271 | 31.67117 | 27825 ft | 448 kts | 32° |
| 2026-05-04 17:03 | 38.35074 | 31.68906 | 28154 ft | 452 kts | 31° |
| 2026-05-04 17:03 | 38.37896 | 31.70711 | 28470 ft | 456 kts | 31° |
| 2026-05-04 17:03 | 38.43613 | 31.74362 | 29117 ft | 462 kts | 31° |
| 2026-05-04 17:04 | 38.49404 | 31.78032 | 29772 ft | 468 kts | 31° |
| 2026-05-04 17:04 | 38.55227 | 31.81717 | 29988 ft | 461 kts | 31° |
| 2026-05-04 17:05 | 38.66647 | 31.88988 | 29974 ft | 459 kts | 31° |
| 2026-05-04 17:06 | 38.75228 | 31.94477 | 29975 ft | 460 kts | 31° |
| 2026-05-04 17:07 | 38.82837 | 31.99353 | 29976 ft | 458 kts | 31° |
| 2026-05-04 17:07 | 38.89502 | 32.03649 | 29975 ft | 458 kts | 32° |
| 2026-05-04 17:08 | 38.98040 | 32.09145 | 29955 ft | 458 kts | 32° |
| 2026-05-04 17:09 | 39.03732 | 32.12815 | 29961 ft | 457 kts | 32° |
| 2026-05-04 17:09 | 39.09405 | 32.16484 | 29958 ft | 456 kts | 32° |
| 2026-05-04 17:10 | 39.23493 | 32.25638 | 29961 ft | 452 kts | 33° |
| 2026-05-04 17:11 | 39.29113 | 32.29295 | 29951 ft | 452 kts | 33° |
| 2026-05-04 17:12 | 39.37532 | 32.34729 | 29954 ft | 453 kts | 30° |
| 2026-05-04 17:12 | 39.43760 | 32.36933 | 29540 ft | 478 kts | 17° |
| 2026-05-04 17:13 | 39.53521 | 32.39187 | 28655 ft | 470 kts | 16° |
| 2026-05-04 17:14 | 39.63040 | 32.41428 | 26500 ft | 457 kts | 15° |
| 2026-05-04 17:14 | 39.66158 | 32.42172 | 25790 ft | 453 kts | 15° |
| 2026-05-04 17:14 | 39.72323 | 32.43646 | 24368 ft | 447 kts | 15° |
| 2026-05-04 17:15 | 39.75378 | 32.44381 | 23660 ft | 444 kts | 15° |
| 2026-05-04 17:15 | 39.80896 | 32.47342 | 22225 ft | 420 kts | 39° |
| 2026-05-04 17:16 | 39.85071 | 32.52313 | 20890 ft | 401 kts | 59° |
| 2026-05-04 17:16 | 39.85967 | 32.62284 | 18896 ft | 375 kts | 115° |
| 2026-05-04 17:17 | 39.84650 | 32.65187 | 18201 ft | 372 kts | 128° |
| 2026-05-04 17:17 | 39.78566 | 32.70096 | 17002 ft | 338 kts | 184° |
| 2026-05-04 17:18 | 39.76401 | 32.69257 | 16876 ft | 317 kts | 207° |
| 2026-05-04 17:18 | 39.72818 | 32.66885 | 16413 ft | 269 kts | 176° |
| 2026-05-04 17:19 | 39.69830 | 32.69366 | 15822 ft | 274 kts | 121° |
| 2026-05-04 17:19 | 39.68019 | 32.73603 | 14972 ft | 264 kts | 109° |
| 2026-05-04 17:20 | 39.68773 | 32.78082 | 14073 ft | 275 kts | 47° |
| 2026-05-04 17:20 | 39.71894 | 32.81007 | 13166 ft | 273 kts | 39° |
| 2026-05-04 17:20 | 39.73416 | 32.82450 | 12735 ft | 276 kts | 40° |
| 2026-05-04 17:21 | 39.76490 | 32.85397 | 11952 ft | 265 kts | 40° |
| 2026-05-04 17:21 | 39.79361 | 32.88127 | 11320 ft | 252 kts | 40° |
| 2026-05-04 17:22 | 39.80756 | 32.89454 | 10960 ft | 247 kts | 40° |
| 2026-05-04 17:22 | 39.82146 | 32.90777 | 10601 ft | 248 kts | 40° |
| 2026-05-04 17:23 | 39.86235 | 32.94659 | 9477 ft | 233 kts | 39° |
| 2026-05-04 17:23 | 39.87542 | 32.95897 | 9107 ft | 232 kts | 39° |
| 2026-05-04 17:23 | 39.90282 | 32.97587 | 8837 ft | 217 kts | 0° |
| 2026-05-04 17:24 | 39.91714 | 32.96935 | 8611 ft | 227 kts | 323° |
| 2026-05-04 17:24 | 39.94667 | 32.91824 | 7302 ft | 233 kts | 310° |
| 2026-05-04 17:25 | 39.95605 | 32.90129 | 6909 ft | 229 kts | 311° |
| 2026-05-04 17:25 | 39.97544 | 32.87115 | 6381 ft | 195 kts | 339° |
| 2026-05-04 17:26 | 39.99675 | 32.87178 | 6148 ft | 140 kts | 39° |
| 2026-05-04 17:26 | 40.02102 | 32.89483 | 5587 ft | 145 kts | 37° |
| 2026-05-04 17:27 | 40.03722 | 32.91016 | 5192 ft | 144 kts | 37° |
| 2026-05-04 17:27 | 40.05350 | 32.92561 | 4784 ft | 146 kts | 37° |
| 2026-05-04 17:28 | 40.06985 | 32.94114 | 4292 ft | 144 kts | 35° |
| 2026-05-04 17:29 | 40.09377 | 32.96394 | 3634 ft | 141 kts | 33° |
| 2026-05-04 17:29 | 40.11727 | 32.98619 | 3135 ft | 131 kts | 35° |
| 2026-05-04 17:30 | 40.12591 | 32.99557 | 3136 ft | 15 kts | 91° |
| 2026-05-04 17:31 | 40.12571 | 32.99711 | 3134 ft | 7 kts | 166° |
| 2026-05-04 17:31 | 40.12551 | 32.99704 | 3134 ft | 0 kts | 224° |
| 2026-05-04 17:32 | 40.12491 | 32.99659 | 3135 ft | 15 kts | 201° |
| 2026-05-04 17:33 | 40.12133 | 32.99324 | 3134 ft | 25 kts | 219° |
| 2026-05-04 17:33 | 40.11989 | 32.99179 | 3134 ft | 27 kts | 216° |
| 2026-05-04 17:34 | 40.11666 | 32.98875 | 3134 ft | 0 kts | 213° |
| 2026-05-04 17:34 | 40.11662 | 32.98878 | 3134 ft | 1 kts | 163° |
| 2026-05-04 17:35 | 40.11635 | 32.99009 | 3134 ft | 6 kts | 53° |
| 2026-05-04 17:35 | 40.11682 | 32.99120 | 3134 ft | 4 kts | 77° |
| 2026-05-04 17:35 | 40.11668 | 32.99149 | 3134 ft | 4 kts | 137° |
| 2026-05-04 17:36 | 40.11640 | 32.99173 | 3134 ft | 5 kts | 148° |
| 2026-05-04 17:36 | 40.11623 | 32.99187 | 3134 ft | 0 kts | 150° |